Terminal Aerodrome Forecast
Issued by NWS

Home | Current Version | Previous Version | Text Only | Print | Product List | Glossary On
Versions: 1 2 3 4 5 6 7 8 9 10 11 12 13 14
000
FTUS42 TJSJ 290522
TAFIST
TAF
TIST 290522Z 2906/3006 09008KT P6SM VCSH FEW020 SCT040 OVC110
     FM291330 12010KT P6SM SCT030 BKN060
     FM292330 09008KT P6SM SCT020=

USA.gov is the U.S. government's official web portal to all federal, state and local government web resources and services.